sensor_id;sensor_type;location;lat;lon;timestamp;P1;durP1;ratioP1;P2;durP2;ratioP2
8279;SDS011;8335;42.646;23.380;2022-08-03T00:01:05;3.17;;;1.73;;
8279;SDS011;8335;42.646;23.380;2022-08-03T00:03:32;2.95;;;1.80;;
8279;SDS011;8335;42.646;23.380;2022-08-03T00:05:59;1.95;;;1.85;;
8279;SDS011;8335;42.646;23.380;2022-08-03T00:08:26;2.13;;;1.52;;
8279;SDS011;8335;42.646;23.380;2022-08-03T00:10:53;2.13;;;1.88;;
8279;SDS011;8335;42.646;23.380;2022-08-03T00:13:19;3.47;;;1.80;;
8279;SDS011;8335;42.646;23.380;2022-08-03T00:15:47;2.15;;;1.70;;
8279;SDS011;8335;42.646;23.380;2022-08-03T00:18:14;2.03;;;1.80;;
8279;SDS011;8335;42.646;23.380;2022-08-03T00:20:41;2.08;;;1.80;;
8279;SDS011;8335;42.646;23.380;2022-08-03T00:23:08;1.90;;;1.80;;
8279;SDS011;8335;42.646;23.380;2022-08-03T00:25:35;1.70;;;1.60;;
8279;SDS011;8335;42.646;23.380;2022-08-03T00:28:02;2.17;;;1.67;;
8279;SDS011;8335;42.646;23.380;2022-08-03T00:30:30;8.20;;;2.63;;
8279;SDS011;8335;42.646;23.380;2022-08-03T00:32:59;2.35;;;1.83;;
8279;SDS011;8335;42.646;23.380;2022-08-03T00:35:25;1.90;;;1.70;;
8279;SDS011;8335;42.646;23.380;2022-08-03T00:37:52;2.40;;;1.70;;
8279;SDS011;8335;42.646;23.380;2022-08-03T00:40:19;1.90;;;1.80;;
8279;SDS011;8335;42.646;23.380;2022-08-03T00:42:46;4.53;;;1.83;;
8279;SDS011;8335;42.646;23.380;2022-08-03T00:45:15;2.55;;;1.75;;
8279;SDS011;8335;42.646;23.380;2022-08-03T00:47:42;2.78;;;1.88;;
8279;SDS011;8335;42.646;23.380;2022-08-03T00:50:10;2.00;;;1.80;;
8279;SDS011;8335;42.646;23.380;2022-08-03T00:52:37;2.55;;;1.70;;
8279;SDS011;8335;42.646;23.380;2022-08-03T00:55:04;2.42;;;1.80;;
8279;SDS011;8335;42.646;23.380;2022-08-03T00:57:32;2.03;;;1.80;;
8279;SDS011;8335;42.646;23.380;2022-08-03T00:59:59;2.00;;;1.90;;
8279;SDS011;8335;42.646;23.380;2022-08-03T01:02:28;2.80;;;1.77;;
8279;SDS011;8335;42.646;23.380;2022-08-03T01:04:55;1.90;;;1.80;;
8279;SDS011;8335;42.646;23.380;2022-08-03T01:07:26;2.17;;;1.80;;
8279;SDS011;8335;42.646;23.380;2022-08-03T01:09:59;3.35;;;2.03;;
8279;SDS011;8335;42.646;23.380;2022-08-03T01:12:34;2.00;;;1.90;;
8279;SDS011;8335;42.646;23.380;2022-08-03T01:15:07;2.08;;;1.90;;
8279;SDS011;8335;42.646;23.380;2022-08-03T01:17:39;1.90;;;1.80;;
8279;SDS011;8335;42.646;23.380;2022-08-03T01:20:12;2.28;;;1.80;;
8279;SDS011;8335;42.646;23.380;2022-08-03T01:26:06;3.20;;;1.80;;
8279;SDS011;8335;42.646;23.380;2022-08-03T01:28:47;1.90;;;1.80;;
8279;SDS011;8335;42.646;23.380;2022-08-03T01:31:31;1.83;;;1.73;;
8279;SDS011;8335;42.646;23.380;2022-08-03T01:34:05;2.05;;;1.90;;
8279;SDS011;8335;42.646;23.380;2022-08-03T01:36:37;2.20;;;2.00;;
8279;SDS011;8335;42.646;23.380;2022-08-03T01:39:07;2.53;;;1.80;;
8279;SDS011;8335;42.646;23.380;2022-08-03T01:41:38;2.30;;;2.10;;
8279;SDS011;8335;42.646;23.380;2022-08-03T01:44:10;1.80;;;1.70;;
8279;SDS011;8335;42.646;23.380;2022-08-03T01:46:39;2.15;;;1.95;;
8279;SDS011;8335;42.646;23.380;2022-08-03T01:49:08;2.42;;;1.80;;
8279;SDS011;8335;42.646;23.380;2022-08-03T01:51:37;2.00;;;1.90;;
8279;SDS011;8335;42.646;23.380;2022-08-03T01:54:08;2.13;;;1.90;;
8279;SDS011;8335;42.646;23.380;2022-08-03T01:56:36;2.10;;;2.00;;
8279;SDS011;8335;42.646;23.380;2022-08-03T01:59:05;2.97;;;2.10;;
8279;SDS011;8335;42.646;23.380;2022-08-03T02:01:34;2.15;;;1.90;;
8279;SDS011;8335;42.646;23.380;2022-08-03T02:04:04;2.30;;;2.00;;
8279;SDS011;8335;42.646;23.380;2022-08-03T02:06:32;2.20;;;2.00;;
8279;SDS011;8335;42.646;23.380;2022-08-03T02:09:01;3.03;;;2.00;;
8279;SDS011;8335;42.646;23.380;2022-08-03T02:11:28;2.43;;;2.10;;
8279;SDS011;8335;42.646;23.380;2022-08-03T02:13:58;2.47;;;2.27;;
8279;SDS011;8335;42.646;23.380;2022-08-03T02:16:30;2.25;;;2.05;;
8279;SDS011;8335;42.646;23.380;2022-08-03T02:18:59;3.50;;;1.90;;
8279;SDS011;8335;42.646;23.380;2022-08-03T02:21:31;2.28;;;2.00;;
8279;SDS011;8335;42.646;23.380;2022-08-03T02:24:00;3.17;;;2.10;;
8279;SDS011;8335;42.646;23.380;2022-08-03T02:26:29;2.10;;;1.90;;
8279;SDS011;8335;42.646;23.380;2022-08-03T02:28:58;2.28;;;2.08;;
8279;SDS011;8335;42.646;23.380;2022-08-03T02:31:29;4.07;;;2.30;;
8279;SDS011;8335;42.646;23.380;2022-08-03T02:33:59;2.53;;;2.00;;
8279;SDS011;8335;42.646;23.380;2022-08-03T02:36:32;2.33;;;2.10;;
8279;SDS011;8335;42.646;23.380;2022-08-03T02:39:03;2.30;;;2.10;;
8279;SDS011;8335;42.646;23.380;2022-08-03T02:41:36;2.30;;;2.10;;
8279;SDS011;8335;42.646;23.380;2022-08-03T02:44:07;3.55;;;2.38;;
8279;SDS011;8335;42.646;23.380;2022-08-03T02:46:36;2.33;;;2.00;;
8279;SDS011;8335;42.646;23.380;2022-08-03T02:49:05;2.30;;;2.10;;
8279;SDS011;8335;42.646;23.380;2022-08-03T02:51:34;3.38;;;2.20;;
8279;SDS011;8335;42.646;23.380;2022-08-03T02:54:04;2.35;;;2.13;;
8279;SDS011;8335;42.646;23.380;2022-08-03T02:56:33;2.72;;;2.30;;
8279;SDS011;8335;42.646;23.380;2022-08-03T02:59:01;4.60;;;2.10;;
8279;SDS011;8335;42.646;23.380;2022-08-03T03:01:29;2.95;;;2.20;;
8279;SDS011;8335;42.646;23.380;2022-08-03T03:03:57;3.92;;;2.20;;
8279;SDS011;8335;42.646;23.380;2022-08-03T03:06:25;5.03;;;2.20;;
8279;SDS011;8335;42.646;23.380;2022-08-03T03:08:55;3.28;;;2.40;;
8279;SDS011;8335;42.646;23.380;2022-08-03T03:11:22;3.53;;;2.28;;
8279;SDS011;8335;42.646;23.380;2022-08-03T03:13:51;2.47;;;2.28;;
8279;SDS011;8335;42.646;23.380;2022-08-03T03:16:18;2.85;;;2.20;;
8279;SDS011;8335;42.646;23.380;2022-08-03T03:18:47;2.72;;;2.15;;
8279;SDS011;8335;42.646;23.380;2022-08-03T03:21:15;3.67;;;2.30;;
8279;SDS011;8335;42.646;23.380;2022-08-03T03:23:44;4.38;;;2.30;;
8279;SDS011;8335;42.646;23.380;2022-08-03T03:26:13;2.50;;;2.30;;
8279;SDS011;8335;42.646;23.380;2022-08-03T03:28:41;2.60;;;2.40;;
8279;SDS011;8335;42.646;23.380;2022-08-03T03:31:08;2.35;;;2.08;;
8279;SDS011;8335;42.646;23.380;2022-08-03T03:33:35;2.70;;;2.20;;
8279;SDS011;8335;42.646;23.380;2022-08-03T03:36:03;2.58;;;2.17;;
8279;SDS011;8335;42.646;23.380;2022-08-03T03:38:31;5.57;;;2.72;;
8279;SDS011;8335;42.646;23.380;2022-08-03T03:40:58;4.05;;;2.50;;
8279;SDS011;8335;42.646;23.380;2022-08-03T03:43:26;2.50;;;2.20;;
8279;SDS011;8335;42.646;23.380;2022-08-03T03:45:53;4.20;;;2.10;;
8279;SDS011;8335;42.646;23.380;2022-08-03T03:48:22;4.43;;;2.35;;
8279;SDS011;8335;42.646;23.380;2022-08-03T03:50:50;2.33;;;2.13;;
8279;SDS011;8335;42.646;23.380;2022-08-03T03:53:17;4.03;;;2.20;;
8279;SDS011;8335;42.646;23.380;2022-08-03T03:55:44;2.55;;;2.30;;
8279;SDS011;8335;42.646;23.380;2022-08-03T03:58:11;2.55;;;2.35;;
8279;SDS011;8335;42.646;23.380;2022-08-03T04:00:39;2.60;;;2.40;;
8279;SDS011;8335;42.646;23.380;2022-08-03T04:03:09;3.58;;;2.30;;
8279;SDS011;8335;42.646;23.380;2022-08-03T04:05:36;2.42;;;2.22;;
8279;SDS011;8335;42.646;23.380;2022-08-03T04:08:20;5.97;;;2.05;;
8279;SDS011;8335;42.646;23.380;2022-08-03T04:11:06;3.45;;;2.03;;
8279;SDS011;8335;42.646;23.380;2022-08-03T04:13:37;2.50;;;1.85;;
8279;SDS011;8335;42.646;23.380;2022-08-03T04:16:09;6.18;;;2.13;;
8279;SDS011;8335;42.646;23.380;2022-08-03T04:18:39;4.80;;;2.00;;
8279;SDS011;8335;42.646;23.380;2022-08-03T04:21:08;2.13;;;1.92;;
8279;SDS011;8335;42.646;23.380;2022-08-03T04:23:38;5.07;;;2.40;;
8279;SDS011;8335;42.646;23.380;2022-08-03T04:26:08;9.05;;;2.50;;
8279;SDS011;8335;42.646;23.380;2022-08-03T04:28:37;4.38;;;2.35;;
8279;SDS011;8335;42.646;23.380;2022-08-03T04:31:06;2.50;;;2.20;;
8279;SDS011;8335;42.646;23.380;2022-08-03T04:33:36;4.28;;;2.25;;
8279;SDS011;8335;42.646;23.380;2022-08-03T04:36:05;4.75;;;2.60;;
8279;SDS011;8335;42.646;23.380;2022-08-03T04:38:35;3.45;;;2.22;;
8279;SDS011;8335;42.646;23.380;2022-08-03T04:41:04;5.53;;;2.53;;
8279;SDS011;8335;42.646;23.380;2022-08-03T04:43:31;5.03;;;3.13;;
8279;SDS011;8335;42.646;23.380;2022-08-03T04:46:00;6.72;;;2.80;;
8279;SDS011;8335;42.646;23.380;2022-08-03T04:48:27;3.75;;;2.47;;
8279;SDS011;8335;42.646;23.380;2022-08-03T04:50:55;7.88;;;3.17;;
8279;SDS011;8335;42.646;23.380;2022-08-03T04:53:24;4.95;;;3.38;;
8279;SDS011;8335;42.646;23.380;2022-08-03T04:55:51;3.45;;;2.60;;
8279;SDS011;8335;42.646;23.380;2022-08-03T04:58:18;4.07;;;2.80;;
8279;SDS011;8335;42.646;23.380;2022-08-03T05:00:45;4.05;;;2.78;;
8279;SDS011;8335;42.646;23.380;2022-08-03T05:03:15;4.00;;;2.20;;
8279;SDS011;8335;42.646;23.380;2022-08-03T05:05:42;2.83;;;1.88;;
8279;SDS011;8335;42.646;23.380;2022-08-03T05:08:10;2.00;;;1.80;;
8279;SDS011;8335;42.646;23.380;2022-08-03T05:10:37;6.50;;;1.80;;
8279;SDS011;8335;42.646;23.380;2022-08-03T05:13:03;3.92;;;1.90;;
8279;SDS011;8335;42.646;23.380;2022-08-03T05:15:30;1.70;;;1.60;;
8279;SDS011;8335;42.646;23.380;2022-08-03T05:17:57;1.80;;;1.70;;
8279;SDS011;8335;42.646;23.380;2022-08-03T05:20:23;2.35;;;1.80;;
8279;SDS011;8335;42.646;23.380;2022-08-03T05:22:50;1.88;;;1.60;;
8279;SDS011;8335;42.646;23.380;2022-08-03T05:25:18;4.30;;;2.10;;
8279;SDS011;8335;42.646;23.380;2022-08-03T05:27:45;4.22;;;2.10;;
8279;SDS011;8335;42.646;23.380;2022-08-03T05:30:12;5.57;;;2.40;;
8279;SDS011;8335;42.646;23.380;2022-08-03T05:32:39;3.70;;;2.72;;
8279;SDS011;8335;42.646;23.380;2022-08-03T05:35:06;5.50;;;3.50;;
8279;SDS011;8335;42.646;23.380;2022-08-03T05:37:33;7.82;;;3.78;;
8279;SDS011;8335;42.646;23.380;2022-08-03T05:40:00;9.52;;;3.75;;
8279;SDS011;8335;42.646;23.380;2022-08-03T05:42:28;6.32;;;3.00;;
8279;SDS011;8335;42.646;23.380;2022-08-03T05:44:55;12.52;;;4.80;;
8279;SDS011;8335;42.646;23.380;2022-08-03T05:47:22;8.10;;;4.70;;
8279;SDS011;8335;42.646;23.380;2022-08-03T05:49:49;9.65;;;4.78;;
8279;SDS011;8335;42.646;23.380;2022-08-03T05:52:15;7.43;;;4.43;;
8279;SDS011;8335;42.646;23.380;2022-08-03T05:54:42;8.98;;;3.60;;
8279;SDS011;8335;42.646;23.380;2022-08-03T05:57:09;22.83;;;14.52;;
8279;SDS011;8335;42.646;23.380;2022-08-03T05:59:38;18.65;;;8.07;;
8279;SDS011;8335;42.646;23.380;2022-08-03T06:02:05;14.60;;;9.07;;
8279;SDS011;8335;42.646;23.380;2022-08-03T06:04:31;12.85;;;8.20;;
8279;SDS011;8335;42.646;23.380;2022-08-03T06:06:58;11.60;;;7.57;;
8279;SDS011;8335;42.646;23.380;2022-08-03T06:09:25;10.10;;;5.13;;
8279;SDS011;8335;42.646;23.380;2022-08-03T06:11:51;10.57;;;3.72;;
8279;SDS011;8335;42.646;23.380;2022-08-03T06:14:18;7.55;;;3.25;;
8279;SDS011;8335;42.646;23.380;2022-08-03T06:16:46;8.02;;;2.70;;
8279;SDS011;8335;42.646;23.380;2022-08-03T06:19:13;8.13;;;2.83;;
8279;SDS011;8335;42.646;23.380;2022-08-03T06:21:40;7.85;;;2.55;;
8279;SDS011;8335;42.646;23.380;2022-08-03T06:24:07;4.32;;;2.75;;
8279;SDS011;8335;42.646;23.380;2022-08-03T06:26:33;5.80;;;2.40;;
8279;SDS011;8335;42.646;23.380;2022-08-03T06:29:00;8.23;;;2.45;;
8279;SDS011;8335;42.646;23.380;2022-08-03T06:31:27;6.28;;;2.80;;
8279;SDS011;8335;42.646;23.380;2022-08-03T06:33:55;6.30;;;2.53;;
8279;SDS011;8335;42.646;23.380;2022-08-03T06:36:22;6.07;;;2.30;;
8279;SDS011;8335;42.646;23.380;2022-08-03T06:38:49;7.63;;;5.72;;
8279;SDS011;8335;42.646;23.380;2022-08-03T06:41:16;13.48;;;10.95;;
8279;SDS011;8335;42.646;23.380;2022-08-03T06:43:43;8.52;;;3.20;;
8279;SDS011;8335;42.646;23.380;2022-08-03T06:46:09;6.97;;;2.60;;
8279;SDS011;8335;42.646;23.380;2022-08-03T06:48:36;4.30;;;2.63;;
8279;SDS011;8335;42.646;23.380;2022-08-03T06:51:04;6.10;;;2.50;;
8279;SDS011;8335;42.646;23.380;2022-08-03T06:53:31;6.43;;;2.53;;
8279;SDS011;8335;42.646;23.380;2022-08-03T06:55:58;8.32;;;2.53;;
8279;SDS011;8335;42.646;23.380;2022-08-03T06:58:24;4.80;;;2.40;;
8279;SDS011;8335;42.646;23.380;2022-08-03T07:00:51;6.43;;;2.80;;
8279;SDS011;8335;42.646;23.380;2022-08-03T07:03:18;4.57;;;2.55;;
8279;SDS011;8335;42.646;23.380;2022-08-03T07:05:45;4.18;;;2.85;;
8279;SDS011;8335;42.646;23.380;2022-08-03T07:08:13;7.18;;;2.40;;
8279;SDS011;8335;42.646;23.380;2022-08-03T07:10:40;5.75;;;2.85;;
8279;SDS011;8335;42.646;23.380;2022-08-03T07:13:07;5.43;;;2.95;;
8279;SDS011;8335;42.646;23.380;2022-08-03T07:15:33;7.63;;;3.20;;
8279;SDS011;8335;42.646;23.380;2022-08-03T07:18:00;10.95;;;3.30;;
8279;SDS011;8335;42.646;23.380;2022-08-03T07:20:27;9.63;;;3.38;;
8279;SDS011;8335;42.646;23.380;2022-08-03T07:22:54;7.88;;;3.25;;
8279;SDS011;8335;42.646;23.380;2022-08-03T07:25:22;10.85;;;3.92;;
8279;SDS011;8335;42.646;23.380;2022-08-03T07:27:49;9.73;;;5.13;;
8279;SDS011;8335;42.646;23.380;2022-08-03T07:30:16;7.55;;;4.80;;
8279;SDS011;8335;42.646;23.380;2022-08-03T07:32:43;8.32;;;4.07;;
8279;SDS011;8335;42.646;23.380;2022-08-03T07:35:10;8.50;;;5.43;;
8279;SDS011;8335;42.646;23.380;2022-08-03T07:37:37;7.72;;;3.90;;
8279;SDS011;8335;42.646;23.380;2022-08-03T07:40:04;8.05;;;3.42;;
8279;SDS011;8335;42.646;23.380;2022-08-03T07:42:33;7.47;;;3.70;;
8279;SDS011;8335;42.646;23.380;2022-08-03T07:45:00;7.95;;;3.40;;
8279;SDS011;8335;42.646;23.380;2022-08-03T07:47:28;4.88;;;2.88;;
8279;SDS011;8335;42.646;23.380;2022-08-03T07:49:55;9.07;;;3.40;;
8279;SDS011;8335;42.646;23.380;2022-08-03T07:52:22;7.88;;;2.88;;
8279;SDS011;8335;42.646;23.380;2022-08-03T07:55:06;11.35;;;5.18;;
8279;SDS011;8335;42.646;23.380;2022-08-03T07:57:35;5.75;;;4.10;;
8279;SDS011;8335;42.646;23.380;2022-08-03T08:00:06;6.38;;;3.28;;
8279;SDS011;8335;42.646;23.380;2022-08-03T08:02:39;7.93;;;3.08;;
8279;SDS011;8335;42.646;23.380;2022-08-03T08:05:06;8.27;;;3.30;;
8279;SDS011;8335;42.646;23.380;2022-08-03T08:07:34;5.63;;;2.88;;
8279;SDS011;8335;42.646;23.380;2022-08-03T08:10:02;5.70;;;2.83;;
8279;SDS011;8335;42.646;23.380;2022-08-03T08:12:29;5.22;;;2.63;;
8279;SDS011;8335;42.646;23.380;2022-08-03T08:14:58;4.97;;;2.83;;
8279;SDS011;8335;42.646;23.380;2022-08-03T08:17:24;4.78;;;2.75;;
8279;SDS011;8335;42.646;23.380;2022-08-03T08:19:51;5.55;;;2.72;;
8279;SDS011;8335;42.646;23.380;2022-08-03T08:22:18;7.28;;;2.83;;
8279;SDS011;8335;42.646;23.380;2022-08-03T08:24:45;4.45;;;2.63;;
8279;SDS011;8335;42.646;23.380;2022-08-03T08:27:13;6.32;;;2.83;;
8279;SDS011;8335;42.646;23.380;2022-08-03T08:29:39;8.00;;;2.85;;
8279;SDS011;8335;42.646;23.380;2022-08-03T08:32:08;3.80;;;2.50;;
8279;SDS011;8335;42.646;23.380;2022-08-03T08:34:35;6.10;;;2.60;;
8279;SDS011;8335;42.646;23.380;2022-08-03T08:37:02;4.93;;;2.63;;
8279;SDS011;8335;42.646;23.380;2022-08-03T08:39:29;10.88;;;3.45;;
8279;SDS011;8335;42.646;23.380;2022-08-03T08:41:55;8.75;;;3.80;;
8279;SDS011;8335;42.646;23.380;2022-08-03T08:44:22;6.80;;;3.40;;
8279;SDS011;8335;42.646;23.380;2022-08-03T08:46:49;4.65;;;2.67;;
8279;SDS011;8335;42.646;23.380;2022-08-03T08:49:20;5.68;;;2.92;;
8279;SDS011;8335;42.646;23.380;2022-08-03T08:51:50;7.55;;;2.80;;
8279;SDS011;8335;42.646;23.380;2022-08-03T08:54:20;6.43;;;2.90;;
8279;SDS011;8335;42.646;23.380;2022-08-03T08:56:48;5.65;;;2.60;;
8279;SDS011;8335;42.646;23.380;2022-08-03T08:59:17;6.22;;;2.47;;
8279;SDS011;8335;42.646;23.380;2022-08-03T09:01:44;5.70;;;2.70;;
8279;SDS011;8335;42.646;23.380;2022-08-03T09:04:11;6.10;;;3.15;;
8279;SDS011;8335;42.646;23.380;2022-08-03T09:06:39;8.45;;;4.50;;
8279;SDS011;8335;42.646;23.380;2022-08-03T09:09:06;8.02;;;4.90;;
8279;SDS011;8335;42.646;23.380;2022-08-03T09:11:33;5.80;;;3.50;;
8279;SDS011;8335;42.646;23.380;2022-08-03T09:14:00;4.80;;;3.00;;
8279;SDS011;8335;42.646;23.380;2022-08-03T09:16:26;5.50;;;3.40;;
8279;SDS011;8335;42.646;23.380;2022-08-03T09:18:53;5.43;;;2.70;;
8279;SDS011;8335;42.646;23.380;2022-08-03T09:21:21;6.72;;;2.90;;
8279;SDS011;8335;42.646;23.380;2022-08-03T09:23:50;4.03;;;2.78;;
8279;SDS011;8335;42.646;23.380;2022-08-03T09:26:19;7.47;;;2.70;;
8279;SDS011;8335;42.646;23.380;2022-08-03T09:28:52;3.13;;;2.45;;
8279;SDS011;8335;42.646;23.380;2022-08-03T09:31:31;3.88;;;2.20;;
8279;SDS011;8335;42.646;23.380;2022-08-03T09:34:02;5.40;;;3.28;;
8279;SDS011;8335;42.646;23.380;2022-08-03T09:36:33;8.30;;;4.82;;
8279;SDS011;8335;42.646;23.380;2022-08-03T09:39:03;4.07;;;2.38;;
8279;SDS011;8335;42.646;23.380;2022-08-03T09:41:31;2.70;;;1.90;;
8279;SDS011;8335;42.646;23.380;2022-08-03T09:43:58;3.92;;;2.17;;
8279;SDS011;8335;42.646;23.380;2022-08-03T09:46:25;5.10;;;1.98;;
8279;SDS011;8335;42.646;23.380;2022-08-03T09:49:07;2.95;;;1.70;;
8279;SDS011;8335;42.646;23.380;2022-08-03T09:51:35;2.15;;;1.95;;
8279;SDS011;8335;42.646;23.380;2022-08-03T09:54:03;3.45;;;2.25;;
8279;SDS011;8335;42.646;23.380;2022-08-03T09:56:37;6.55;;;2.45;;
8279;SDS011;8335;42.646;23.380;2022-08-03T09:59:05;3.40;;;2.17;;
8279;SDS011;8335;42.646;23.380;2022-08-03T10:01:32;4.45;;;2.00;;
8279;SDS011;8335;42.646;23.380;2022-08-03T10:03:59;3.28;;;2.20;;
8279;SDS011;8335;42.646;23.380;2022-08-03T10:06:26;5.68;;;1.90;;
8279;SDS011;8335;42.646;23.380;2022-08-03T10:09:04;4.85;;;1.90;;
8279;SDS011;8335;42.646;23.380;2022-08-03T10:11:32;4.40;;;2.17;;
8279;SDS011;8335;42.646;23.380;2022-08-03T10:14:00;3.03;;;2.13;;
8279;SDS011;8335;42.646;23.380;2022-08-03T10:16:30;2.60;;;2.03;;
8279;SDS011;8335;42.646;23.380;2022-08-03T10:18:59;2.88;;;2.10;;
8279;SDS011;8335;42.646;23.380;2022-08-03T10:21:26;2.42;;;2.10;;
8279;SDS011;8335;42.646;23.380;2022-08-03T10:23:57;3.05;;;2.05;;
8279;SDS011;8335;42.646;23.380;2022-08-03T10:26:28;6.30;;;2.00;;
8279;SDS011;8335;42.646;23.380;2022-08-03T10:28:58;2.80;;;2.13;;
8279;SDS011;8335;42.646;23.380;2022-08-03T10:31:30;4.65;;;2.22;;
8279;SDS011;8335;42.646;23.380;2022-08-03T10:34:04;2.53;;;2.33;;
8279;SDS011;8335;42.646;23.380;2022-08-03T10:36:36;4.38;;;2.08;;
8279;SDS011;8335;42.646;23.380;2022-08-03T10:39:05;3.33;;;2.67;;
8279;SDS011;8335;42.646;23.380;2022-08-03T10:41:35;2.10;;;1.90;;
8279;SDS011;8335;42.646;23.380;2022-08-03T10:44:05;1.95;;;1.85;;
8279;SDS011;8335;42.646;23.380;2022-08-03T10:46:35;4.65;;;2.45;;
8279;SDS011;8335;42.646;23.380;2022-08-03T10:49:03;3.63;;;2.17;;
8279;SDS011;8335;42.646;23.380;2022-08-03T10:51:32;5.38;;;2.20;;
8279;SDS011;8335;42.646;23.380;2022-08-03T10:53:59;3.33;;;2.30;;
8279;SDS011;8335;42.646;23.380;2022-08-03T10:56:40;6.05;;;2.40;;
8279;SDS011;8335;42.646;23.380;2022-08-03T11:05:28;4.50;;;2.42;;
8279;SDS011;8335;42.646;23.380;2022-08-03T11:10:45;2.85;;;2.00;;
8279;SDS011;8335;42.646;23.380;2022-08-03T11:13:19;2.10;;;1.90;;
8279;SDS011;8335;42.646;23.380;2022-08-03T11:15:48;3.05;;;2.08;;
8279;SDS011;8335;42.646;23.380;2022-08-03T11:18:16;4.15;;;2.00;;
8279;SDS011;8335;42.646;23.380;2022-08-03T11:20:44;2.10;;;1.90;;
8279;SDS011;8335;42.646;23.380;2022-08-03T11:23:11;4.78;;;2.45;;
8279;SDS011;8335;42.646;23.380;2022-08-03T11:28:35;3.05;;;2.00;;
8279;SDS011;8335;42.646;23.380;2022-08-03T11:34:21;2.42;;;2.22;;
8279;SDS011;8335;42.646;23.380;2022-08-03T11:39:51;2.92;;;2.33;;
8279;SDS011;8335;42.646;23.380;2022-08-03T11:42:42;4.82;;;2.00;;
8279;SDS011;8335;42.646;23.380;2022-08-03T11:45:13;2.30;;;2.10;;
8279;SDS011;8335;42.646;23.380;2022-08-03T11:47:41;5.30;;;2.38;;
8279;SDS011;8335;42.646;23.380;2022-08-03T11:50:08;6.90;;;1.95;;
8279;SDS011;8335;42.646;23.380;2022-08-03T11:52:39;2.67;;;2.20;;
8279;SDS011;8335;42.646;23.380;2022-08-03T11:55:10;2.75;;;2.33;;
8279;SDS011;8335;42.646;23.380;2022-08-03T11:57:39;4.53;;;1.98;;
8279;SDS011;8335;42.646;23.380;2022-08-03T12:00:24;2.25;;;2.05;;
8279;SDS011;8335;42.646;23.380;2022-08-03T12:02:53;6.60;;;2.47;;
8279;SDS011;8335;42.646;23.380;2022-08-03T12:05:37;2.72;;;2.20;;
8279;SDS011;8335;42.646;23.380;2022-08-03T12:08:07;6.35;;;2.13;;
8279;SDS011;8335;42.646;23.380;2022-08-03T12:10:34;5.28;;;2.70;;
8279;SDS011;8335;42.646;23.380;2022-08-03T12:13:02;4.72;;;2.35;;
8279;SDS011;8335;42.646;23.380;2022-08-03T12:15:34;4.57;;;2.15;;
8279;SDS011;8335;42.646;23.380;2022-08-03T12:18:03;4.15;;;1.92;;
8279;SDS011;8335;42.646;23.380;2022-08-03T12:20:38;3.92;;;2.15;;
8279;SDS011;8335;42.646;23.380;2022-08-03T12:23:06;7.13;;;2.22;;
8279;SDS011;8335;42.646;23.380;2022-08-03T12:25:34;2.72;;;2.20;;
8279;SDS011;8335;42.646;23.380;2022-08-03T12:28:06;3.65;;;2.30;;
8279;SDS011;8335;42.646;23.380;2022-08-03T12:30:42;2.78;;;2.10;;
8279;SDS011;8335;42.646;23.380;2022-08-03T12:33:12;4.03;;;2.17;;
8279;SDS011;8335;42.646;23.380;2022-08-03T12:35:45;2.85;;;2.22;;
8279;SDS011;8335;42.646;23.380;2022-08-03T12:38:17;2.35;;;2.05;;
8279;SDS011;8335;42.646;23.380;2022-08-03T12:40:53;8.00;;;2.45;;
8279;SDS011;8335;42.646;23.380;2022-08-03T12:43:21;13.30;;;2.90;;
8279;SDS011;8335;42.646;23.380;2022-08-03T12:45:49;5.38;;;2.20;;
8279;SDS011;8335;42.646;23.380;2022-08-03T12:48:16;2.67;;;2.00;;
8279;SDS011;8335;42.646;23.380;2022-08-03T12:50:42;4.63;;;2.42;;
8279;SDS011;8335;42.646;23.380;2022-08-03T12:53:09;3.17;;;2.20;;
8279;SDS011;8335;42.646;23.380;2022-08-03T12:55:36;3.95;;;2.67;;
8279;SDS011;8335;42.646;23.380;2022-08-03T12:58:04;2.72;;;2.30;;
8279;SDS011;8335;42.646;23.380;2022-08-03T13:00:35;3.53;;;2.22;;
8279;SDS011;8335;42.646;23.380;2022-08-03T13:03:04;3.88;;;2.00;;
8279;SDS011;8335;42.646;23.380;2022-08-03T13:05:41;2.40;;;2.20;;
8279;SDS011;8335;42.646;23.380;2022-08-03T13:08:16;4.03;;;2.30;;
8279;SDS011;8335;42.646;23.380;2022-08-03T13:10:44;5.50;;;2.42;;
8279;SDS011;8335;42.646;23.380;2022-08-03T13:13:11;3.85;;;2.40;;
8279;SDS011;8335;42.646;23.380;2022-08-03T13:15:37;2.47;;;2.20;;
8279;SDS011;8335;42.646;23.380;2022-08-03T13:18:06;2.53;;;2.30;;
8279;SDS011;8335;42.646;23.380;2022-08-03T13:20:33;2.58;;;2.38;;
8279;SDS011;8335;42.646;23.380;2022-08-03T13:23:00;5.30;;;2.38;;
8279;SDS011;8335;42.646;23.380;2022-08-03T13:25:26;6.93;;;2.85;;
8279;SDS011;8335;42.646;23.380;2022-08-03T13:27:53;5.40;;;2.38;;
8279;SDS011;8335;42.646;23.380;2022-08-03T13:30:20;4.70;;;2.50;;
8279;SDS011;8335;42.646;23.380;2022-08-03T13:32:46;4.40;;;3.15;;
8279;SDS011;8335;42.646;23.380;2022-08-03T13:35:14;5.65;;;2.63;;
8279;SDS011;8335;42.646;23.380;2022-08-03T13:37:41;5.47;;;2.50;;
8279;SDS011;8335;42.646;23.380;2022-08-03T13:40:08;5.30;;;2.60;;
8279;SDS011;8335;42.646;23.380;2022-08-03T13:42:35;3.63;;;2.63;;
8279;SDS011;8335;42.646;23.380;2022-08-03T13:45:02;4.57;;;2.30;;
8279;SDS011;8335;42.646;23.380;2022-08-03T13:47:30;6.30;;;2.45;;
8279;SDS011;8335;42.646;23.380;2022-08-03T13:49:57;2.53;;;2.33;;
8279;SDS011;8335;42.646;23.380;2022-08-03T13:52:25;4.40;;;2.70;;
8279;SDS011;8335;42.646;23.380;2022-08-03T13:54:51;4.05;;;3.05;;
8279;SDS011;8335;42.646;23.380;2022-08-03T13:57:18;3.00;;;2.60;;
8279;SDS011;8335;42.646;23.380;2022-08-03T13:59:45;4.85;;;3.03;;
8279;SDS011;8335;42.646;23.380;2022-08-03T14:02:12;5.03;;;2.58;;
8279;SDS011;8335;42.646;23.380;2022-08-03T14:04:38;4.22;;;3.00;;
8279;SDS011;8335;42.646;23.380;2022-08-03T14:07:05;4.30;;;2.53;;
8279;SDS011;8335;42.646;23.380;2022-08-03T14:09:33;4.25;;;2.70;;
8279;SDS011;8335;42.646;23.380;2022-08-03T14:12:00;3.20;;;2.58;;
8279;SDS011;8335;42.646;23.380;2022-08-03T14:14:27;4.03;;;2.65;;
8279;SDS011;8335;42.646;23.380;2022-08-03T14:16:53;5.10;;;2.58;;
8279;SDS011;8335;42.646;23.380;2022-08-03T14:19:20;4.95;;;2.60;;
8279;SDS011;8335;42.646;23.380;2022-08-03T14:21:47;6.55;;;2.88;;
8279;SDS011;8335;42.646;23.380;2022-08-03T14:24:13;4.13;;;2.50;;
8279;SDS011;8335;42.646;23.380;2022-08-03T14:26:41;4.05;;;2.53;;
8279;SDS011;8335;42.646;23.380;2022-08-03T14:29:08;3.33;;;2.65;;
8279;SDS011;8335;42.646;23.380;2022-08-03T14:31:35;4.93;;;2.60;;
8279;SDS011;8335;42.646;23.380;2022-08-03T14:34:02;7.45;;;3.03;;
8279;SDS011;8335;42.646;23.380;2022-08-03T14:36:28;3.90;;;2.50;;
8279;SDS011;8335;42.646;23.380;2022-08-03T14:38:55;5.35;;;3.00;;
8279;SDS011;8335;42.646;23.380;2022-08-03T14:41:22;7.18;;;3.33;;
8279;SDS011;8335;42.646;23.380;2022-08-03T14:43:50;3.88;;;3.08;;
8279;SDS011;8335;42.646;23.380;2022-08-03T14:46:17;6.18;;;2.90;;
8279;SDS011;8335;42.646;23.380;2022-08-03T14:48:43;3.08;;;2.78;;
8279;SDS011;8335;42.646;23.380;2022-08-03T14:51:10;4.18;;;2.67;;
8279;SDS011;8335;42.646;23.380;2022-08-03T14:53:37;2.60;;;2.40;;
8279;SDS011;8335;42.646;23.380;2022-08-03T14:56:04;3.17;;;2.53;;
8279;SDS011;8335;42.646;23.380;2022-08-03T14:58:31;4.82;;;2.90;;
8279;SDS011;8335;42.646;23.380;2022-08-03T15:00:59;3.05;;;2.53;;
8279;SDS011;8335;42.646;23.380;2022-08-03T15:03:26;3.00;;;2.70;;
8279;SDS011;8335;42.646;23.380;2022-08-03T15:05:53;2.78;;;2.50;;
8279;SDS011;8335;42.646;23.380;2022-08-03T15:08:22;2.70;;;2.50;;
8279;SDS011;8335;42.646;23.380;2022-08-03T15:10:50;3.20;;;2.75;;
8279;SDS011;8335;42.646;23.380;2022-08-03T15:13:17;4.57;;;3.40;;
8279;SDS011;8335;42.646;23.380;2022-08-03T15:15:46;5.72;;;3.35;;
8279;SDS011;8335;42.646;23.380;2022-08-03T15:18:15;4.72;;;3.20;;
8279;SDS011;8335;42.646;23.380;2022-08-03T15:20:41;7.10;;;3.20;;
8279;SDS011;8335;42.646;23.380;2022-08-03T15:23:08;7.55;;;3.58;;
8279;SDS011;8335;42.646;23.380;2022-08-03T15:25:35;7.18;;;3.25;;
8279;SDS011;8335;42.646;23.380;2022-08-03T15:28:01;5.40;;;3.10;;
8279;SDS011;8335;42.646;23.380;2022-08-03T15:30:28;8.05;;;3.60;;